This is the latest recevied weather packets stored in our database for station/object GW1477. If no packets are shown the sender has not sent any weather packets the latest 10 day(s).
| Time | Temp. | Humidity | Pressure | Rain* | Wind** | Luminosity | Snow |
|---|---|---|---|---|---|---|---|
| 1777734045 | 7.78° C | 49% | - | 0 mm | - | - | - |
| 1777732610 | 7.22° C | 49% | - | 0 mm | - | - | - |
| 1777727567 | 5° C | 63% | - | 0 mm | - | - | - |
| 1777726834 | 5° C | 68% | - | 0 mm | - | - | - |
| 1777723604 | 2.78° C | 79% | - | 0 mm | - | - | - |
| 1777722892 | 2.22° C | 85% | - | 0 mm | - | - | - |
| 1777722152 | 1.67° C | 90% | - | 0 mm | - | - | - |
| 1777717127 | 0.56° C | 91% | - | 0 mm | - | - | - |
| 1777716391 | 0.56° C | 91% | - | 0 mm | - | - | - |
| 1777705945 | 1.67° C | 88% | - | 0 mm | - | - | - |
| 1777701647 | 3.89° C | 79% | - | 0 mm | - | - | - |
| 1777701289 | 3.89° C | 79% | - | 0 mm | - | - | - |
| 1777699821 | 4.44° C | 78% | - | 0 mm | - | - | - |
| 1777698388 | 5° C | 80% | - | 0 mm | - | - | - |
| 1777695875 | 6.11° C | 79% | - | 0 mm | - | - | - |
| 1777691175 | 6.11° C | 80% | - | 0 mm | - | - | - |
| 1777681112 | 10° C | 68% | - | 0 mm | - | - | - |
| 1777680766 | 10° C | 67% | - | 0 mm | - | - | - |
| 1777679693 | 11.11° C | 62% | - | 0 mm | - | - | - |
| 1777678973 | 11.67° C | 57% | - | 0 mm | - | - | - |
| 1777674654 | 13.89° C | 41% | - | 0 mm | - | - | - |
| 1777671758 | 16.67° C | 31% | - | 0 mm | - | - | - |
| 1777661321 | 15° C | 34% | - | 0 mm | - | - | - |
| 1777660943 | 15° C | 33% | - | 0 mm | - | - | - |
| 1777658813 | 14.44° C | 37% | - | 0 mm | - | - | - |
* Rain since midnight (hover to see other rain measurements)
** Current wind speed in m/s (hover to see current wind gust speed)